createdAt,value
2023-05-25T00:00:03.812Z,6.07
2023-05-25T00:02:34.400Z,5.73
2023-05-25T00:05:03.382Z,5.30
2023-05-25T00:07:32.038Z,5.37
2023-05-25T00:10:00.676Z,5.27
2023-05-25T00:12:29.469Z,5.50
2023-05-25T00:14:58.127Z,5.57
2023-05-25T00:17:32.028Z,4.70
2023-05-25T00:20:08.077Z,6.80
2023-05-25T00:22:37.110Z,5.50
2023-05-25T00:25:06.383Z,6.60
2023-05-25T00:27:35.047Z,4.90
2023-05-25T00:30:03.683Z,5.50
2023-05-25T00:32:32.320Z,7.00
2023-05-25T00:35:02.331Z,6.57
2023-05-25T00:37:31.033Z,5.17
2023-05-25T00:39:59.609Z,5.63
2023-05-25T00:42:28.296Z,5.23
2023-05-25T00:44:57.686Z,6.60
2023-05-25T00:47:27.415Z,6.47
2023-05-25T00:49:56.086Z,6.60
2023-05-25T00:52:27.096Z,6.37
2023-05-25T00:54:56.331Z,5.27
2023-05-25T00:57:25.043Z,5.53
2023-05-25T00:59:53.761Z,6.03
2023-05-25T01:02:24.451Z,5.77
2023-05-25T01:04:54.877Z,5.40
2023-05-25T01:07:26.211Z,5.97
2023-05-25T01:09:58.227Z,5.90
2023-05-25T01:12:28.097Z,5.67
2023-05-25T01:14:57.379Z,5.23
2023-05-25T01:17:26.470Z,6.63
2023-05-25T01:20:09.023Z,6.17
2023-05-25T01:22:43.420Z,5.23
2023-05-25T01:25:14.920Z,5.50
2023-05-25T01:27:46.108Z,5.00
2023-05-25T01:30:15.761Z,6.97
2023-05-25T01:32:44.768Z,5.67
2023-05-25T01:35:13.397Z,7.13
2023-05-25T01:37:48.527Z,5.60
2023-05-25T01:40:17.167Z,6.00
2023-05-25T01:42:45.985Z,6.03
2023-05-25T01:45:14.829Z,5.70
2023-05-25T01:47:47.890Z,6.27
2023-05-25T01:50:20.371Z,6.70
2023-05-25T01:52:56.987Z,6.60
2023-05-25T01:55:26.890Z,6.10
2023-05-25T01:57:57.930Z,6.53
2023-05-25T02:00:27.522Z,5.93
2023-05-25T02:02:56.263Z,7.33
2023-05-25T02:05:24.959Z,5.97
2023-05-25T02:07:54.968Z,6.40
2023-05-25T02:10:23.721Z,7.00
2023-05-25T02:12:52.336Z,5.70
2023-05-25T02:15:22.191Z,5.70
2023-05-25T02:17:51.473Z,5.90
2023-05-25T02:20:20.266Z,6.27
2023-05-25T02:22:48.925Z,6.70
2023-05-25T02:25:19.068Z,6.57
2023-05-25T02:27:47.701Z,6.57
2023-05-25T02:30:16.589Z,6.33
2023-05-25T02:32:45.298Z,6.17
2023-05-25T02:35:14.049Z,5.80
2023-05-25T02:37:42.736Z,6.53
2023-05-25T02:40:12.584Z,6.90
2023-05-25T02:42:42.618Z,6.00
2023-05-25T02:45:12.287Z,8.23
2023-05-25T02:47:41.047Z,6.37
2023-05-25T02:50:10.337Z,6.90
2023-05-25T02:52:38.991Z,5.83
2023-05-25T02:55:10.301Z,7.67
2023-05-25T02:57:39.183Z,6.30
2023-05-25T03:00:12.180Z,6.37
2023-05-25T03:02:40.847Z,8.43
2023-05-25T03:05:10.018Z,5.80
2023-05-25T03:07:38.724Z,6.63
2023-05-25T03:10:08.047Z,6.30
2023-05-25T03:12:36.655Z,7.60
2023-05-25T03:15:05.682Z,5.97
2023-05-25T03:17:35.897Z,5.80
2023-05-25T03:20:05.762Z,6.70
2023-05-25T03:22:34.461Z,6.50
2023-05-25T03:25:03.176Z,6.63
2023-05-25T03:27:31.833Z,7.33
2023-05-25T03:30:00.507Z,6.60
2023-05-25T03:32:29.190Z,6.67
2023-05-25T03:34:59.307Z,6.70
2023-05-25T03:37:27.933Z,6.50
2023-05-25T03:39:56.638Z,6.53
2023-05-25T03:42:25.318Z,7.20
2023-05-25T03:44:54.361Z,7.53
2023-05-25T03:47:23.117Z,7.97
2023-05-25T03:49:51.774Z,7.07
2023-05-25T03:52:21.832Z,7.17
2023-05-25T03:54:51.104Z,7.00
2023-05-25T03:57:19.854Z,7.20
2023-05-25T03:59:48.576Z,7.13
2023-05-25T04:02:17.247Z,6.90
2023-05-25T04:04:46.066Z,6.30
2023-05-25T04:07:14.938Z,7.27
2023-05-25T04:09:45.050Z,7.20
2023-05-25T04:12:13.736Z,7.90
2023-05-25T04:14:43.496Z,7.13
2023-05-25T04:17:12.140Z,7.00
2023-05-25T04:19:40.836Z,8.20
2023-05-25T04:22:09.445Z,7.60
2023-05-25T04:24:38.121Z,7.53
2023-05-25T04:27:08.325Z,8.03
2023-05-25T04:29:37.367Z,7.70
2023-05-25T04:32:09.399Z,6.93
2023-05-25T04:34:38.169Z,8.10
2023-05-25T04:37:09.156Z,7.73
2023-05-25T04:39:38.035Z,7.40
2023-05-25T04:42:08.487Z,9.00
2023-05-25T04:44:37.763Z,9.13
2023-05-25T04:47:07.294Z,9.17
2023-05-25T04:49:36.549Z,7.83
2023-05-25T04:52:05.781Z,7.77
2023-05-25T04:54:34.425Z,8.60
2023-05-25T04:57:03.799Z,9.13
2023-05-25T04:59:33.900Z,8.60
2023-05-25T05:02:02.557Z,8.40
2023-05-25T05:04:31.152Z,8.93
2023-05-25T05:06:59.831Z,10.87
2023-05-25T05:09:28.469Z,9.17
2023-05-25T05:11:57.140Z,10.30
2023-05-25T05:14:25.764Z,9.73
2023-05-25T05:16:55.939Z,9.07
2023-05-25T05:19:25.010Z,8.73
2023-05-25T05:21:53.598Z,9.20
2023-05-25T05:24:22.277Z,11.33
2023-05-25T05:26:58.425Z,9.33
2023-05-25T05:29:28.684Z,10.07
2023-05-25T05:31:58.964Z,10.07
2023-05-25T05:34:27.728Z,11.30
2023-05-25T05:36:58.637Z,9.50
2023-05-25T05:39:27.736Z,10.07
2023-05-25T05:41:56.648Z,10.00
2023-05-25T05:44:28.760Z,9.60
2023-05-25T05:47:01.763Z,11.03
2023-05-25T05:49:30.916Z,10.13
2023-05-25T05:51:59.741Z,10.70
2023-05-25T05:54:28.644Z,9.10
2023-05-25T05:56:57.355Z,8.93
2023-05-25T05:59:26.625Z,9.80
2023-05-25T06:01:55.315Z,10.80
2023-05-25T06:04:28.716Z,9.67
2023-05-25T06:06:57.672Z,9.20
2023-05-25T06:09:27.361Z,9.37
2023-05-25T06:11:56.103Z,9.20
2023-05-25T06:14:26.771Z,8.43
2023-05-25T06:16:56.971Z,11.07
2023-05-25T06:19:27.177Z,9.43
2023-05-25T06:21:55.932Z,9.17
2023-05-25T06:24:24.562Z,9.80
2023-05-25T06:26:53.229Z,9.70
2023-05-25T06:29:21.916Z,8.17
2023-05-25T06:31:50.552Z,8.73
2023-05-25T06:34:19.341Z,7.60
2023-05-25T06:36:49.404Z,8.77
2023-05-25T06:39:18.083Z,8.13
2023-05-25T06:41:46.806Z,8.60
2023-05-25T06:44:15.505Z,8.70
2023-05-25T06:46:44.181Z,8.67
2023-05-25T06:49:12.855Z,8.03
2023-05-25T06:51:41.461Z,8.07
2023-05-25T06:54:13.872Z,7.30
2023-05-25T06:56:42.721Z,7.73
2023-05-25T06:59:11.377Z,6.17
2023-05-25T07:01:40.046Z,5.60
2023-05-25T07:04:08.704Z,6.97
2023-05-25T07:06:37.313Z,5.60
2023-05-25T07:09:06.504Z,6.50
2023-05-25T07:11:36.678Z,5.87
2023-05-25T07:14:05.355Z,5.97
2023-05-25T07:16:34.386Z,5.80
2023-05-25T07:19:03.121Z,6.13
2023-05-25T07:21:33.252Z,6.43
2023-05-25T07:24:01.944Z,5.23
2023-05-25T07:26:31.893Z,5.63
2023-05-25T07:29:02.019Z,4.20
2023-05-25T07:31:30.694Z,4.93
2023-05-25T07:33:59.312Z,5.77
2023-05-25T07:36:27.919Z,5.43
2023-05-25T07:38:56.649Z,5.30
2023-05-25T07:41:25.308Z,5.37
2023-05-25T07:43:53.955Z,5.60
2023-05-25T07:46:25.983Z,3.80
2023-05-25T07:48:55.123Z,4.90
2023-05-25T07:51:26.382Z,3.87
2023-05-25T07:53:56.507Z,3.80
2023-05-25T07:56:25.234Z,3.43
2023-05-25T07:58:53.944Z,3.17
2023-05-25T08:01:26.800Z,4.30
2023-05-25T08:03:55.895Z,4.50
2023-05-25T08:06:24.590Z,3.70
2023-05-25T08:08:53.248Z,5.20
2023-05-25T08:11:25.292Z,4.17
2023-05-25T08:13:53.908Z,4.30
2023-05-25T08:16:24.099Z,17.00
2023-05-25T08:18:52.862Z,4.80
2023-05-25T08:21:21.581Z,3.00
2023-05-25T08:23:51.257Z,4.90
2023-05-25T08:26:34.745Z,4.40
2023-05-25T08:29:08.517Z,4.53
2023-05-25T08:31:38.541Z,4.03
2023-05-25T08:34:07.265Z,5.13
2023-05-25T08:36:36.237Z,4.10
2023-05-25T08:39:05.805Z,4.00
2023-05-25T08:41:34.443Z,3.63
2023-05-25T08:44:06.431Z,4.30
2023-05-25T08:46:35.094Z,4.80
2023-05-25T08:49:11.037Z,4.67
2023-05-25T08:51:40.428Z,4.40
2023-05-25T08:54:10.662Z,3.77
2023-05-25T08:56:43.250Z,4.07
2023-05-25T08:59:16.877Z,3.97
2023-05-25T09:01:47.369Z,3.57
2023-05-25T09:04:19.480Z,3.80
2023-05-25T09:06:57.277Z,4.30
2023-05-25T09:09:37.077Z,3.83
2023-05-25T09:12:06.326Z,3.47
2023-05-25T09:14:35.094Z,3.60
2023-05-25T09:17:03.756Z,4.10
2023-05-25T09:19:33.797Z,4.83
2023-05-25T09:22:15.044Z,4.80
2023-05-25T09:24:45.980Z,4.30
2023-05-25T09:27:21.260Z,5.20
2023-05-25T09:29:49.917Z,4.30
2023-05-25T09:32:18.819Z,4.23
2023-05-25T09:34:49.084Z,4.20
2023-05-25T09:37:19.425Z,4.50
2023-05-25T09:39:48.868Z,4.43
2023-05-25T09:42:17.874Z,4.27
2023-05-25T09:44:46.522Z,4.53
2023-05-25T09:47:16.959Z,5.27
2023-05-25T09:49:47.606Z,3.70
2023-05-25T09:52:17.814Z,3.33
2023-05-25T09:54:46.961Z,4.10
2023-05-25T09:57:16.156Z,5.00
2023-05-25T09:59:45.288Z,3.70
2023-05-25T10:02:14.122Z,3.30
2023-05-25T10:04:43.092Z,3.70
2023-05-25T10:07:11.838Z,4.20
2023-05-25T10:09:42.661Z,3.67
2023-05-25T10:12:11.338Z,4.30
2023-05-25T10:14:40.017Z,4.43
2023-05-25T10:17:08.658Z,4.30
2023-05-25T10:19:41.427Z,3.70
2023-05-25T10:22:15.110Z,4.60
2023-05-25T10:24:51.164Z,3.67
2023-05-25T10:27:27.058Z,4.33
2023-05-25T10:29:57.066Z,3.47
2023-05-25T10:32:26.098Z,4.13
2023-05-25T10:34:54.905Z,4.37
2023-05-25T10:37:23.616Z,4.70
2023-05-25T10:39:53.844Z,5.10
2023-05-25T10:42:22.466Z,5.00
2023-05-25T10:44:51.215Z,3.80
2023-05-25T10:47:19.893Z,4.37
2023-05-25T10:49:55.438Z,5.10
2023-05-25T10:52:27.361Z,4.33
2023-05-25T10:54:59.342Z,4.83
2023-05-25T10:57:28.029Z,5.30
2023-05-25T11:00:02.503Z,4.80
2023-05-25T11:02:32.266Z,5.23
2023-05-25T11:05:32.321Z,4.30
2023-05-25T11:08:01.103Z,4.30
2023-05-25T11:10:56.891Z,4.40
2023-05-25T11:13:40.415Z,4.43
2023-05-25T11:16:17.665Z,4.50
2023-05-25T11:18:47.382Z,4.07
2023-05-25T11:21:18.705Z,3.07
2023-05-25T11:23:57.263Z,4.00
2023-05-25T11:26:28.756Z,3.80
2023-05-25T11:28:59.025Z,4.70
2023-05-25T11:31:35.208Z,4.50
2023-05-25T11:34:07.506Z,4.13
2023-05-25T11:36:37.077Z,4.00
2023-05-25T11:39:11.721Z,4.17
2023-05-25T11:41:50.319Z,4.43
2023-05-25T11:44:28.365Z,4.00
2023-05-25T11:46:58.101Z,3.97
2023-05-25T11:49:26.950Z,4.47
2023-05-25T11:51:55.936Z,5.00
2023-05-25T11:54:25.454Z,4.23
2023-05-25T11:56:57.391Z,3.60
2023-05-25T11:59:27.233Z,4.37
2023-05-25T12:01:58.335Z,4.20
2023-05-25T12:04:27.163Z,5.00
2023-05-25T12:07:02.484Z,4.60
2023-05-25T12:09:31.306Z,4.80
2023-05-25T12:12:02.416Z,5.00
2023-05-25T12:14:31.274Z,4.40
2023-05-25T12:16:59.915Z,4.53
2023-05-25T12:19:28.628Z,4.07
2023-05-25T12:21:57.313Z,4.80
2023-05-25T12:24:26.000Z,4.33
2023-05-25T12:26:57.766Z,3.90
2023-05-25T12:29:27.909Z,3.90
2023-05-25T12:32:03.494Z,5.87
2023-05-25T12:34:31.797Z,4.37
2023-05-25T12:37:00.182Z,4.93
2023-05-25T12:39:38.886Z,4.40
2023-05-25T12:42:13.145Z,5.30
2023-05-25T12:44:43.083Z,4.37
2023-05-25T12:47:12.724Z,4.90
2023-05-25T12:49:41.643Z,3.60
2023-05-25T12:52:11.015Z,4.47
2023-05-25T12:54:42.217Z,4.33
2023-05-25T12:57:12.210Z,4.23
2023-05-25T12:59:42.784Z,4.67
2023-05-25T13:02:11.534Z,4.97
2023-05-25T13:04:40.822Z,6.60
2023-05-25T13:07:10.180Z,4.80
2023-05-25T13:09:38.821Z,5.57
2023-05-25T13:12:08.110Z,5.67
2023-05-25T13:14:36.480Z,5.40
2023-05-25T13:17:06.719Z,6.07
2023-05-25T13:19:35.171Z,5.77
2023-05-25T13:22:03.767Z,5.13
2023-05-25T13:24:32.665Z,5.10
2023-05-25T13:27:01.424Z,7.43
2023-05-25T13:29:29.783Z,6.10
2023-05-25T13:31:58.191Z,5.80
2023-05-25T13:34:27.960Z,4.63
2023-05-25T13:36:56.550Z,6.00
2023-05-25T13:39:24.856Z,5.90
2023-05-25T13:41:53.200Z,4.97
2023-05-25T13:44:21.557Z,5.10
2023-05-25T13:46:50.008Z,4.83
2023-05-25T13:49:19.647Z,4.93
2023-05-25T13:51:49.641Z,4.30
2023-05-25T13:54:18.748Z,4.00
2023-05-25T13:56:47.127Z,4.90
2023-05-25T13:59:15.715Z,4.63
2023-05-25T14:01:44.009Z,4.77
2023-05-25T14:04:14.862Z,4.47
2023-05-25T14:06:43.289Z,5.27
2023-05-25T14:09:13.563Z,4.40
2023-05-25T14:11:42.069Z,5.37
2023-05-25T14:14:23.242Z,5.17
2023-05-25T14:16:58.776Z,4.60
2023-05-25T14:19:27.146Z,5.50
2023-05-25T14:24:28.132Z,5.10
2023-05-25T14:26:56.418Z,4.97
2023-05-25T14:29:24.760Z,4.67
2023-05-25T14:31:53.278Z,4.30
2023-05-25T14:34:21.690Z,4.13
2023-05-25T14:36:50.062Z,4.47
2023-05-25T14:39:18.500Z,5.13
2023-05-25T14:41:48.186Z,4.80
2023-05-25T14:44:16.719Z,3.87
2023-05-25T14:46:45.179Z,3.90
2023-05-25T14:49:14.595Z,4.43
2023-05-25T14:51:42.918Z,4.23
2023-05-25T14:54:13.462Z,4.43
2023-05-25T14:56:41.881Z,4.10
2023-05-25T14:59:11.621Z,4.20
2023-05-25T15:01:40.359Z,4.07
2023-05-25T15:04:09.160Z,5.50
2023-05-25T15:06:39.387Z,4.80
2023-05-25T15:09:07.832Z,4.30
2023-05-25T15:11:36.206Z,3.83
2023-05-25T15:14:04.593Z,4.63
2023-05-25T15:16:34.561Z,4.60
2023-05-25T15:19:03.088Z,4.83
2023-05-25T15:21:31.516Z,5.20
2023-05-25T15:23:59.842Z,4.50
2023-05-25T15:26:28.240Z,4.40
2023-05-25T15:28:56.529Z,5.17
2023-05-25T15:31:25.411Z,5.07
2023-05-25T15:33:58.484Z,5.40
2023-05-25T15:36:27.435Z,4.70
2023-05-25T15:38:55.851Z,6.00
2023-05-25T15:41:24.217Z,5.27
2023-05-25T15:43:54.722Z,4.77
2023-05-25T15:46:23.210Z,4.77
2023-05-25T15:48:51.701Z,5.13
2023-05-25T15:51:21.469Z,4.60
2023-05-25T15:53:49.822Z,4.30
2023-05-25T15:56:18.201Z,4.50
2023-05-25T15:58:49.443Z,5.33
2023-05-25T16:01:17.952Z,4.37
2023-05-25T16:03:46.417Z,4.90
2023-05-25T16:06:14.821Z,5.20
2023-05-25T16:08:44.484Z,5.13
2023-05-25T16:11:12.912Z,4.40
2023-05-25T16:13:41.291Z,4.50
2023-05-25T16:16:09.871Z,4.13
2023-05-25T16:18:38.315Z,4.40
2023-05-25T16:21:07.136Z,4.30
2023-05-25T16:23:35.587Z,3.83
2023-05-25T16:26:06.014Z,3.80
2023-05-25T16:28:34.399Z,3.70
2023-05-25T16:31:02.717Z,3.90
2023-05-25T16:33:31.113Z,4.30
2023-05-25T16:36:00.404Z,4.50
2023-05-25T16:38:29.166Z,4.30
2023-05-25T16:40:57.890Z,4.20
2023-05-25T16:43:27.832Z,3.93
2023-05-25T16:46:16.313Z,3.83
2023-05-25T16:48:58.205Z,4.20
2023-05-25T16:52:04.118Z,3.60
2023-05-25T16:54:53.124Z,3.90
2023-05-25T16:57:43.622Z,4.00
2023-05-25T17:00:38.443Z,4.47
2023-05-25T17:03:16.298Z,4.53
2023-05-25T17:05:45.182Z,3.87
2023-05-25T17:08:13.659Z,4.03
2023-05-25T17:10:42.082Z,3.90
2023-05-25T17:13:10.460Z,3.87
2023-05-25T17:15:40.369Z,3.90
2023-05-25T17:18:08.788Z,3.73
2023-05-25T17:20:37.219Z,3.33
2023-05-25T17:23:05.626Z,3.90
2023-05-25T17:25:34.305Z,3.97
2023-05-25T17:28:02.834Z,3.90
2023-05-25T17:30:31.283Z,4.40
2023-05-25T17:33:01.736Z,4.90
2023-05-25T17:35:30.373Z,4.10
2023-05-25T17:37:58.699Z,4.10
2023-05-25T17:40:27.061Z,4.70
2023-05-25T17:42:55.455Z,3.30
2023-05-25T17:45:23.848Z,4.00
2023-05-25T17:47:52.305Z,3.67
2023-05-25T17:50:22.089Z,3.50
2023-05-25T17:52:50.424Z,3.87
2023-05-25T17:55:20.486Z,4.27
2023-05-25T17:57:48.864Z,4.00
2023-05-25T18:00:22.778Z,4.43
2023-05-25T18:02:52.088Z,4.43
2023-05-25T18:05:22.096Z,4.60
2023-05-25T18:07:50.476Z,4.93
2023-05-25T18:10:18.872Z,4.67
2023-05-25T18:12:49.349Z,4.03
2023-05-25T18:15:17.821Z,3.83
2023-05-25T18:17:46.212Z,3.93
2023-05-25T18:20:14.710Z,4.13
2023-05-25T18:22:44.477Z,4.90
2023-05-25T18:25:12.853Z,4.10
2023-05-25T18:27:41.221Z,4.77
2023-05-25T18:30:11.195Z,4.10
2023-05-25T18:32:39.535Z,4.17
2023-05-25T18:35:09.234Z,4.33
2023-05-25T18:37:37.621Z,4.87
2023-05-25T18:40:11.641Z,4.77
2023-05-25T18:42:40.013Z,4.77
2023-05-25T18:45:09.508Z,4.90
2023-05-25T18:47:38.122Z,4.90
2023-05-25T18:50:07.962Z,4.87
2023-05-25T18:52:36.343Z,4.83
2023-05-25T18:55:06.730Z,4.20
2023-05-25T18:57:35.102Z,4.20
2023-05-25T19:00:03.945Z,4.10
2023-05-25T19:02:32.395Z,4.30
2023-05-25T19:05:00.740Z,4.43
2023-05-25T19:07:29.158Z,4.27
2023-05-25T19:09:57.523Z,3.60
2023-05-25T19:12:27.229Z,4.00
2023-05-25T19:14:55.712Z,5.10
2023-05-25T19:17:24.094Z,4.60
2023-05-25T19:19:52.485Z,5.13
2023-05-25T19:22:20.910Z,3.40
2023-05-25T19:24:57.500Z,4.30
2023-05-25T19:27:30.292Z,4.60
2023-05-25T19:29:59.112Z,5.23
2023-05-25T19:32:27.494Z,4.57
2023-05-25T19:34:55.842Z,4.60
2023-05-25T19:37:24.272Z,4.83
2023-05-25T19:39:52.614Z,4.20
2023-05-25T19:42:20.999Z,3.83
2023-05-25T19:44:51.034Z,3.77
2023-05-25T19:47:19.451Z,3.80
2023-05-25T19:49:48.123Z,4.60
2023-05-25T19:52:17.765Z,3.80
2023-05-25T19:54:46.107Z,4.57
2023-05-25T19:57:14.498Z,3.40
2023-05-25T19:59:43.364Z,4.27
2023-05-25T20:02:13.379Z,3.77
2023-05-25T20:04:41.774Z,4.27
2023-05-25T20:07:10.632Z,4.27
2023-05-25T20:09:39.206Z,4.07
2023-05-25T20:12:08.063Z,4.10
2023-05-25T20:14:36.396Z,4.10
2023-05-25T20:17:05.206Z,3.83
2023-05-25T20:19:34.978Z,3.63
2023-05-25T20:22:04.304Z,4.10
2023-05-25T20:24:33.256Z,4.10
2023-05-25T20:27:01.651Z,4.20
2023-05-25T20:29:30.041Z,4.53
2023-05-25T20:31:58.488Z,4.30
2023-05-25T20:34:27.484Z,4.60
2023-05-25T20:36:57.196Z,5.40
2023-05-25T20:39:25.588Z,5.43
2023-05-25T20:41:53.910Z,5.03
2023-05-25T20:44:22.341Z,4.97
2023-05-25T20:46:50.767Z,5.57
2023-05-25T20:49:19.205Z,5.60
2023-05-25T20:51:50.022Z,4.90
2023-05-25T20:54:19.821Z,4.40
2023-05-25T20:56:48.350Z,4.37
2023-05-25T20:59:16.719Z,4.50
2023-05-25T21:01:45.360Z,5.10
2023-05-25T21:04:13.724Z,4.10
2023-05-25T21:06:42.070Z,4.20
2023-05-25T21:09:10.600Z,4.10
2023-05-25T21:11:40.391Z,3.40
2023-05-25T21:14:08.756Z,4.20
2023-05-25T21:16:37.320Z,4.57
2023-05-25T21:19:05.733Z,4.57
2023-05-25T21:21:34.093Z,4.10
2023-05-25T21:24:02.563Z,4.10
2023-05-25T21:26:31.378Z,4.97
2023-05-25T21:29:01.246Z,4.10
2023-05-25T21:31:29.652Z,3.80
2023-05-25T21:33:59.988Z,3.60
2023-05-25T21:36:28.968Z,4.50
2023-05-25T21:38:57.942Z,4.00
2023-05-25T21:41:27.207Z,4.40
2023-05-25T21:43:55.572Z,3.90
2023-05-25T21:46:25.428Z,4.63
2023-05-25T21:48:53.806Z,4.43
2023-05-25T21:51:22.138Z,4.10
2023-05-25T21:53:50.383Z,3.40
2023-05-25T21:56:18.791Z,4.00
2023-05-25T21:58:47.139Z,5.43
2023-05-25T22:01:15.518Z,4.70
2023-05-25T22:03:45.254Z,4.27
2023-05-25T22:06:13.649Z,5.27
2023-05-25T22:08:42.130Z,4.67
2023-05-25T22:11:10.762Z,5.30
2023-05-25T22:13:39.058Z,4.03
2023-05-25T22:16:07.955Z,4.13
2023-05-25T22:18:38.432Z,4.53
2023-05-25T22:21:08.432Z,4.50
2023-05-25T22:23:37.263Z,3.67
2023-05-25T22:26:05.677Z,3.77
2023-05-25T22:28:34.085Z,5.97
2023-05-25T22:31:02.482Z,5.00
2023-05-25T22:33:30.796Z,5.00
2023-05-25T22:35:59.104Z,5.10
2023-05-25T22:38:28.866Z,4.90
2023-05-25T22:40:57.264Z,4.90
2023-05-25T22:43:26.999Z,4.40
2023-05-25T22:45:56.984Z,5.03
2023-05-25T22:48:25.443Z,5.47
2023-05-25T22:50:53.741Z,4.67
2023-05-25T22:53:22.396Z,4.53
2023-05-25T22:55:52.314Z,4.73
2023-05-25T22:58:20.802Z,4.53
2023-05-25T23:00:49.269Z,4.37
2023-05-25T23:03:17.834Z,3.87
2023-05-25T23:05:46.523Z,5.40
2023-05-25T23:08:15.163Z,4.73
2023-05-25T23:10:43.488Z,4.40
2023-05-25T23:13:14.394Z,4.90
2023-05-25T23:15:44.866Z,5.20
2023-05-25T23:18:13.456Z,4.37
2023-05-25T23:20:41.865Z,4.90
2023-05-25T23:23:10.472Z,5.20
2023-05-25T23:25:38.829Z,5.67
2023-05-25T23:28:07.190Z,5.00
2023-05-25T23:30:37.833Z,4.67
2023-05-25T23:33:08.453Z,5.10
2023-05-25T23:35:36.869Z,4.90
2023-05-25T23:38:05.530Z,4.50
2023-05-25T23:40:33.908Z,5.10
2023-05-25T23:43:02.361Z,5.20
2023-05-25T23:45:30.716Z,6.00
2023-05-25T23:48:00.481Z,7.20
2023-05-25T23:50:28.864Z,5.93
2023-05-25T23:52:57.202Z,5.20
2023-05-25T23:55:25.678Z,5.60
2023-05-25T23:57:54.185Z,5.80
